Time;durP1;ratioP1;P1;durP2;ratioP2;P2;SDS_P1;SDS_P2;PMS_P1;PMS_P2;Temp;Humidity;BMP_temperature;BMP_pressure;BME280_temperature;BME280_humidity;BME280_pressure;Samples;Min_cycle;Max_cycle;Signal;HPM_P1;HPM_P2
2023/10/20 00:00:36;;;;;;;33.45;20.77;;;;;;;;;;5069279;27;99961;-72
2023/10/20 00:03:02;;;;;;;40.67;20.80;;;;;;;;;;5068802;27;98297;-75
2023/10/20 00:05:29;;;;;;;36.05;21.30;;;;;;;;;;5068768;27;99095;-74
2023/10/20 00:07:55;;;;;;;28.60;19.80;;;;;;;;;;5071383;27;99075;-74
2023/10/20 00:10:22;;;;;;;27.98;19.35;;;;;;;;;;5068443;27;99499;-75
2023/10/20 00:12:48;;;;;;;22.83;14.88;;;;;;;;;;5069572;27;100159;-74
2023/10/20 00:15:15;;;;;;;22.58;15.25;;;;;;;;;;5068220;27;98905;-73
2023/10/20 00:17:45;;;;;;;37.60;18.65;;;;;;;;;;5068723;27;99739;-74
2023/10/20 00:20:12;;;;;;;31.58;20.13;;;;;;;;;;5065062;27;100693;-74
2023/10/20 00:22:39;;;;;;;34.53;19.83;;;;;;;;;;5058552;27;98298;-74
2023/10/20 00:25:05;;;;;;;32.10;20.60;;;;;;;;;;5067431;27;98847;-74
2023/10/20 00:27:32;;;;;;;29.48;19.48;;;;;;;;;;5066861;27;99918;-74
2023/10/20 00:29:58;;;;;;;25.90;16.90;;;;;;;;;;5073258;27;98858;-74
2023/10/20 00:32:25;;;;;;;27.77;20.67;;;;;;;;;;5053159;27;99206;-74
2023/10/20 00:34:52;;;;;;;28.80;18.90;;;;;;;;;;5068229;27;98185;-74
2023/10/20 00:37:18;;;;;;;34.47;20.60;;;;;;;;;;5055057;27;100990;-74
2023/10/20 00:39:45;;;;;;;25.20;18.80;;;;;;;;;;5068731;27;99167;-74
2023/10/20 00:42:12;;;;;;;34.78;20.77;;;;;;;;;;5067070;27;98167;-74
2023/10/20 00:44:38;;;;;;;27.92;19.63;;;;;;;;;;5055373;27;100372;-74
2023/10/20 00:47:05;;;;;;;25.48;17.85;;;;;;;;;;5062242;27;99507;-74
2023/10/20 00:49:32;;;;;;;32.00;20.30;;;;;;;;;;5067292;27;98144;-74
2023/10/20 00:51:59;;;;;;;35.97;21.25;;;;;;;;;;5066760;27;98440;-74
2023/10/20 00:54:26;;;;;;;34.08;21.80;;;;;;;;;;5100824;27;98623;-74
2023/10/20 00:56:53;;;;;;;27.85;18.70;;;;;;;;;;5066399;27;98249;-74
2023/10/20 00:59:19;;;;;;;25.33;16.92;;;;;;;;;;5067649;27;98854;-74
2023/10/20 01:01:46;;;;;;;27.55;17.63;;;;;;;;;;5057782;27;98999;-75
2023/10/20 01:04:12;;;;;;;31.27;19.33;;;;;;;;;;5068573;27;98319;-74
2023/10/20 01:06:39;;;;;;;25.92;15.93;;;;;;;;;;5065536;27;98701;-73
2023/10/20 01:09:08;;;;;;;29.50;19.08;;;;;;;;;;5068364;27;98274;-74
2023/10/20 01:11:37;;;;;;;30.88;20.65;;;;;;;;;;5068429;27;98528;-74
2023/10/20 01:14:04;;;;;;;27.52;18.90;;;;;;;;;;5057496;27;99254;-74
2023/10/20 01:16:31;;;;;;;32.35;18.77;;;;;;;;;;5088451;27;101293;-73
2023/10/20 01:18:59;;;;;;;28.33;18.85;;;;;;;;;;5051496;27;102233;-74
2023/10/20 01:21:26;;;;;;;30.42;19.85;;;;;;;;;;5047055;27;98970;-73
2023/10/20 01:23:53;;;;;;;25.92;17.77;;;;;;;;;;5053469;27;98607;-73
2023/10/20 01:26:19;;;;;;;30.58;19.17;;;;;;;;;;5065159;27;101586;-74
2023/10/20 01:28:46;;;;;;;29.13;19.50;;;;;;;;;;5067440;27;99088;-74
2023/10/20 01:31:12;;;;;;;30.27;19.15;;;;;;;;;;5066549;27;98738;-74
2023/10/20 01:33:39;;;;;;;30.77;18.50;;;;;;;;;;5048407;27;98768;-74
2023/10/20 01:36:05;;;;;;;31.90;19.05;;;;;;;;;;5071632;27;98104;-74
2023/10/20 01:38:32;;;;;;;27.42;17.80;;;;;;;;;;5065479;27;98865;-74
2023/10/20 01:40:59;;;;;;;33.25;19.30;;;;;;;;;;5054464;27;98261;-74
2023/10/20 01:43:25;;;;;;;35.40;19.88;;;;;;;;;;5047211;27;98378;-74
2023/10/20 01:45:53;;;;;;;28.05;17.88;;;;;;;;;;5059905;27;100420;-74
2023/10/20 01:48:19;;;;;;;34.42;20.05;;;;;;;;;;5071600;27;98719;-74
2023/10/20 01:50:46;;;;;;;30.73;18.98;;;;;;;;;;5058058;27;98594;-74
2023/10/20 01:53:12;;;;;;;31.80;19.50;;;;;;;;;;5058213;27;100914;-74
2023/10/20 01:55:40;;;;;;;34.72;19.77;;;;;;;;;;5058806;27;98460;-74
2023/10/20 01:58:06;;;;;;;34.13;19.80;;;;;;;;;;5065433;27;101666;-74
2023/10/20 02:00:35;;;;;;;29.05;17.73;;;;;;;;;;5047381;27;98362;-73
2023/10/20 02:03:02;;;;;;;29.45;19.27;;;;;;;;;;5066941;27;101676;-74
2023/10/20 02:05:28;;;;;;;26.27;17.52;;;;;;;;;;5066674;27;98857;-74
2023/10/20 02:07:55;;;;;;;30.90;19.55;;;;;;;;;;5062565;27;100063;-74
2023/10/20 02:10:21;;;;;;;18.98;11.98;;;;;;;;;;5058644;27;98527;-74
2023/10/20 02:12:48;;;;;;;33.80;20.35;;;;;;;;;;5067636;27;98744;-74
2023/10/20 02:15:14;;;;;;;36.85;19.58;;;;;;;;;;5053806;27;98194;-74
2023/10/20 02:17:42;;;;;;;34.75;20.77;;;;;;;;;;5064338;27;99371;-74
2023/10/20 02:20:09;;;;;;;32.67;19.88;;;;;;;;;;5058907;27;98623;-74
2023/10/20 02:22:35;;;;;;;28.85;16.80;;;;;;;;;;5065429;27;101019;-75
2023/10/20 02:25:02;;;;;;;28.13;18.02;;;;;;;;;;5065796;27;98908;-75
2023/10/20 02:27:29;;;;;;;33.05;19.48;;;;;;;;;;5064954;27;98559;-75
2023/10/20 02:29:56;;;;;;;24.33;17.80;;;;;;;;;;5065082;27;99160;-75
2023/10/20 02:32:23;;;;;;;36.72;21.17;;;;;;;;;;5061051;27;98950;-74
2023/10/20 02:34:49;;;;;;;19.73;12.90;;;;;;;;;;5064557;27;98265;-74
2023/10/20 02:37:16;;;;;;;25.00;16.23;;;;;;;;;;5049700;27;101502;-74
2023/10/20 02:39:43;;;;;;;30.25;19.60;;;;;;;;;;5057577;27;98829;-74
2023/10/20 02:42:09;;;;;;;34.70;18.67;;;;;;;;;;5046505;27;98251;-74
2023/10/20 02:44:37;;;;;;;34.72;19.35;;;;;;;;;;5046171;27;99117;-74
2023/10/20 02:47:03;;;;;;;24.63;14.38;;;;;;;;;;5064481;27;98234;-74
2023/10/20 02:49:30;;;;;;;31.23;19.73;;;;;;;;;;5066108;27;98234;-74
2023/10/20 02:51:56;;;;;;;28.38;15.75;;;;;;;;;;5064130;27;98804;-74
2023/10/20 02:54:23;;;;;;;26.35;15.82;;;;;;;;;;5066702;27;98156;-73
2023/10/20 02:56:49;;;;;;;35.45;20.17;;;;;;;;;;5066549;27;98499;-73
2023/10/20 02:59:15;;;;;;;20.95;13.32;;;;;;;;;;5065231;27;99002;-75
2023/10/20 03:01:43;;;;;;;32.05;18.73;;;;;;;;;;5070810;27;98225;-74
2023/10/20 03:04:09;;;;;;;31.85;16.90;;;;;;;;;;5068027;27;99843;-74
2023/10/20 03:06:36;;;;;;;26.27;16.33;;;;;;;;;;5069278;27;98420;-73
2023/10/20 03:09:03;;;;;;;29.55;15.27;;;;;;;;;;5070504;27;98309;-74
2023/10/20 03:11:30;;;;;;;31.75;18.00;;;;;;;;;;5069534;27;99003;-74
2023/10/20 03:13:57;;;;;;;27.90;17.23;;;;;;;;;;5069395;27;98054;-73
2023/10/20 03:16:24;;;;;;;30.77;16.00;;;;;;;;;;5068606;27;99706;-76
2023/10/20 03:18:51;;;;;;;27.45;17.40;;;;;;;;;;5071055;27;99030;-73
2023/10/20 03:21:18;;;;;;;29.20;17.48;;;;;;;;;;5069432;27;98477;-75
2023/10/20 03:23:45;;;;;;;32.72;19.27;;;;;;;;;;5068615;27;98151;-73
2023/10/20 03:26:12;;;;;;;31.98;18.27;;;;;;;;;;5063967;27;98505;-73
2023/10/20 03:28:39;;;;;;;31.85;18.05;;;;;;;;;;5055124;27;98291;-74
2023/10/20 03:31:07;;;;;;;26.75;15.85;;;;;;;;;;5064024;27;98797;-74
2023/10/20 03:33:33;;;;;;;19.50;13.52;;;;;;;;;;5055330;27;98162;-74
2023/10/20 03:36:01;;;;;;;29.50;17.83;;;;;;;;;;5056656;27;101112;-74
2023/10/20 03:38:28;;;;;;;26.00;16.20;;;;;;;;;;5053974;27;98848;-74
2023/10/20 03:41:04;;;;;;;27.33;14.52;;;;;;;;;;5057518;27;98373;-73
2023/10/20 03:43:30;;;;;;;27.88;15.18;;;;;;;;;;5050322;27;98982;-74
2023/10/20 03:45:59;;;;;;;26.52;15.73;;;;;;;;;;5070398;27;98217;-74
2023/10/20 03:48:29;;;;;;;26.08;17.40;;;;;;;;;;5067233;27;99369;-74
2023/10/20 03:50:55;;;;;;;27.30;16.98;;;;;;;;;;5068146;27;98867;-73
2023/10/20 03:53:22;;;;;;;32.85;17.50;;;;;;;;;;5070033;27;98254;-73
2023/10/20 03:55:56;;;;;;;24.58;14.73;;;;;;;;;;5066669;27;101093;-73
2023/10/20 03:58:22;;;;;;;28.38;14.43;;;;;;;;;;5064554;27;98890;-74
2023/10/20 04:00:52;;;;;;;25.98;15.85;;;;;;;;;;5062815;27;98290;-74
2023/10/20 04:03:18;;;;;;;30.35;17.13;;;;;;;;;;5066918;27;98678;-74
2023/10/20 04:05:45;;;;;;;25.80;13.68;;;;;;;;;;5071124;27;100198;-74
2023/10/20 04:08:13;;;;;;;24.88;13.63;;;;;;;;;;5068397;27;98449;-73
2023/10/20 04:10:40;;;;;;;30.15;17.38;;;;;;;;;;5065776;27;98744;-75
2023/10/20 04:13:07;;;;;;;25.33;14.75;;;;;;;;;;5054711;27;98235;-74
2023/10/20 04:15:36;;;;;;;22.42;13.50;;;;;;;;;;5061174;27;98466;-74
2023/10/20 04:18:04;;;;;;;25.92;16.05;;;;;;;;;;5049157;27;102320;-75
2023/10/20 04:20:31;;;;;;;31.63;16.75;;;;;;;;;;5055680;27;98252;-74
2023/10/20 04:22:58;;;;;;;31.30;16.63;;;;;;;;;;5056742;27;99630;-74
2023/10/20 04:25:33;;;;;;;45.75;19.08;;;;;;;;;;5061795;27;99876;-74
2023/10/20 04:41:55;;;;;;;32.45;18.25;;;;;;;;;;5055721;27;98678;-74
2023/10/20 05:10:35;;;;;;;35.40;16.50;;;;;;;;;;5048021;27;98183;-73
2023/10/20 05:13:02;;;;;;;24.45;15.23;;;;;;;;;;5048358;27;98341;-75
2023/10/20 05:15:32;;;;;;;19.13;10.52;;;;;;;;;;5068824;27;99802;-74
2023/10/20 05:17:58;;;;;;;28.90;16.58;;;;;;;;;;5062533;27;98704;-74
2023/10/20 05:20:25;;;;;;;25.42;15.45;;;;;;;;;;5046750;27;99926;-74
2023/10/20 05:22:51;;;;;;;25.38;14.80;;;;;;;;;;5063896;27;98269;-74
2023/10/20 05:25:18;;;;;;;23.85;14.95;;;;;;;;;;5064870;27;99415;-73
2023/10/20 05:27:44;;;;;;;27.88;14.80;;;;;;;;;;5063823;27;98855;-74
2023/10/20 05:30:11;;;;;;;27.83;15.40;;;;;;;;;;5059717;27;98907;-75
2023/10/20 05:32:37;;;;;;;25.00;14.27;;;;;;;;;;5063982;27;99828;-72
2023/10/20 05:35:07;;;;;;;25.73;14.68;;;;;;;;;;5053944;27;99765;-73
2023/10/20 05:37:33;;;;;;;23.33;14.25;;;;;;;;;;5065902;27;98515;-73
2023/10/20 05:40:00;;;;;;;18.23;11.07;;;;;;;;;;5065380;27;99853;-72
2023/10/20 05:42:26;;;;;;;19.10;12.98;;;;;;;;;;5049614;27;98219;-72
2023/10/20 05:45:03;;;;;;;19.65;10.60;;;;;;;;;;5047971;27;98646;-72
2023/10/20 05:47:30;;;;;;;22.95;12.27;;;;;;;;;;5057865;27;100035;-74
2023/10/20 05:49:59;;;;;;;17.83;12.48;;;;;;;;;;5050023;27;98268;-74
2023/10/20 05:52:25;;;;;;;18.33;10.40;;;;;;;;;;5066499;27;99759;-73
2023/10/20 05:54:53;;;;;;;20.27;12.93;;;;;;;;;;5064564;27;99064;-74
2023/10/20 05:57:20;;;;;;;14.77;10.30;;;;;;;;;;5055594;27;99474;-72
2023/10/20 05:59:47;;;;;;;13.82;9.55;;;;;;;;;;5067586;27;99825;-74
2023/10/20 06:02:14;;;;;;;12.23;8.35;;;;;;;;;;5065881;27;98514;-75
2023/10/20 06:04:40;;;;;;;11.93;8.75;;;;;;;;;;5064309;27;98742;-74
2023/10/20 06:07:07;;;;;;;13.65;9.10;;;;;;;;;;5065804;27;99839;-73
2023/10/20 06:09:33;;;;;;;17.30;9.27;;;;;;;;;;5067502;27;98199;-74
2023/10/20 06:12:00;;;;;;;12.95;9.02;;;;;;;;;;5068033;27;98631;-74
2023/10/20 06:14:26;;;;;;;12.13;8.07;;;;;;;;;;5067052;27;100038;-74
2023/10/20 06:16:53;;;;;;;13.68;7.40;;;;;;;;;;5056760;27;98421;-74
2023/10/20 06:19:19;;;;;;;10.73;7.60;;;;;;;;;;5051469;27;99401;-74
2023/10/20 06:21:46;;;;;;;13.52;9.18;;;;;;;;;;5055438;27;99067;-74
2023/10/20 06:24:13;;;;;;;12.20;8.65;;;;;;;;;;5060908;27;99021;-75
2023/10/20 06:26:40;;;;;;;13.73;7.93;;;;;;;;;;5065156;27;100020;-75
2023/10/20 06:29:55;;;;;;;13.15;7.88;;;;;;;;;;5054041;27;98612;-74
2023/10/20 06:34:35;;;;;;;7.43;6.57;;;;;;;;;;5046324;27;98016;-74
2023/10/20 06:37:18;;;;;;;10.75;8.90;;;;;;;;;;5047580;27;98265;-74
2023/10/20 06:39:45;;;;;;;9.52;7.63;;;;;;;;;;5049046;27;98442;-74
2023/10/20 06:42:11;;;;;;;12.63;8.00;;;;;;;;;;5053643;27;98915;-74
2023/10/20 06:44:38;;;;;;;13.07;8.85;;;;;;;;;;5057021;27;99591;-74
2023/10/20 06:47:05;;;;;;;14.40;8.35;;;;;;;;;;5065645;27;100520;-75
2023/10/20 06:49:32;;;;;;;12.40;7.85;;;;;;;;;;5056660;27;98891;-74
2023/10/20 06:52:03;;;;;;;14.43;10.00;;;;;;;;;;5054716;27;98836;-75
2023/10/20 06:54:30;;;;;;;12.35;8.60;;;;;;;;;;5050842;27;99979;-74
2023/10/20 06:56:57;;;;;;;13.15;9.05;;;;;;;;;;5055234;27;98257;-75
2023/10/20 06:59:24;;;;;;;11.95;8.90;;;;;;;;;;5054692;27;99788;-75
2023/10/20 07:01:51;;;;;;;23.67;10.90;;;;;;;;;;5050115;27;98953;-75
2023/10/20 07:04:17;;;;;;;22.48;10.20;;;;;;;;;;5052709;27;98741;-75
2023/10/20 07:06:44;;;;;;;20.38;11.10;;;;;;;;;;5050041;27;100330;-74
2023/10/20 07:09:13;;;;;;;17.85;10.60;;;;;;;;;;5050398;27;98808;-74
2023/10/20 07:11:41;;;;;;;18.35;10.15;;;;;;;;;;5069761;27;99633;-74
2023/10/20 07:14:08;;;;;;;13.77;9.15;;;;;;;;;;5069880;27;99132;-75
2023/10/20 07:16:34;;;;;;;19.45;8.55;;;;;;;;;;5069778;27;98251;-74
2023/10/20 07:19:01;;;;;;;22.52;9.77;;;;;;;;;;5069711;27;98576;-74
2023/10/20 07:21:27;;;;;;;19.00;10.48;;;;;;;;;;5069687;27;98980;-74
2023/10/20 07:23:55;;;;;;;14.77;10.02;;;;;;;;;;5070174;27;98193;-74
2023/10/20 07:26:22;;;;;;;22.83;10.38;;;;;;;;;;5071973;27;99242;-76
2023/10/20 07:28:48;;;;;;;23.05;11.05;;;;;;;;;;5070415;27;98246;-77
2023/10/20 07:31:18;;;;;;;16.20;9.95;;;;;;;;;;5069989;27;98678;-76
2023/10/20 07:33:44;;;;;;;20.30;10.00;;;;;;;;;;5068482;27;99987;-74
2023/10/20 07:36:11;;;;;;;17.00;9.23;;;;;;;;;;5070160;27;98826;-74
2023/10/20 07:38:38;;;;;;;10.88;6.68;;;;;;;;;;5070026;27;99438;-74
2023/10/20 07:41:06;;;;;;;12.55;8.02;;;;;;;;;;5065730;27;98873;-73
2023/10/20 07:43:33;;;;;;;17.08;9.60;;;;;;;;;;5069602;27;98965;-74
2023/10/20 07:45:59;;;;;;;13.65;9.93;;;;;;;;;;5069881;27;98717;-73
2023/10/20 07:48:26;;;;;;;16.48;10.73;;;;;;;;;;5072226;27;98954;-73
2023/10/20 07:50:52;;;;;;;10.57;7.50;;;;;;;;;;5069865;27;98556;-75
2023/10/20 07:53:19;;;;;;;11.23;7.97;;;;;;;;;;5069572;27;100115;-75
2023/10/20 07:55:45;;;;;;;16.23;9.60;;;;;;;;;;5070093;27;98195;-75
2023/10/20 07:58:12;;;;;;;15.80;8.80;;;;;;;;;;5069210;27;99518;-74
2023/10/20 08:00:38;;;;;;;14.23;5.57;;;;;;;;;;5068597;27;99894;-74
2023/10/20 08:03:05;;;;;;;13.00;7.57;;;;;;;;;;5069764;27;98191;-75
2023/10/20 08:05:35;;;;;;;13.20;6.03;;;;;;;;;;5069723;27;99438;-74
2023/10/20 08:08:04;;;;;;;13.95;6.53;;;;;;;;;;5073650;27;99076;-74
2023/10/20 08:10:30;;;;;;;8.35;5.80;;;;;;;;;;5069736;27;99666;-75
2023/10/20 08:12:57;;;;;;;10.68;7.35;;;;;;;;;;5070411;27;99025;-74
2023/10/20 08:15:27;;;;;;;8.88;6.32;;;;;;;;;;5069250;27;98494;-74
2023/10/20 08:17:57;;;;;;;11.13;5.70;;;;;;;;;;5071095;27;98389;-75
2023/10/20 08:20:23;;;;;;;9.13;5.85;;;;;;;;;;5068984;27;100086;-75
2023/10/20 08:22:50;;;;;;;9.95;5.00;;;;;;;;;;5067972;27;99079;-75
2023/10/20 08:25:16;;;;;;;11.65;5.38;;;;;;;;;;5069113;27;99595;-74
2023/10/20 08:27:45;;;;;;;6.28;5.22;;;;;;;;;;5069047;27;100176;-75
2023/10/20 08:30:11;;;;;;;9.30;5.07;;;;;;;;;;5071542;27;98398;-75
2023/10/20 08:32:38;;;;;;;3.72;3.42;;;;;;;;;;5047841;27;102836;-74
2023/10/20 08:35:08;;;;;;;5.05;4.53;;;;;;;;;;5049585;27;98220;-74
2023/10/20 08:37:35;;;;;;;6.60;3.70;;;;;;;;;;5047505;27;99521;-75
2023/10/20 08:40:02;;;;;;;7.40;4.45;;;;;;;;;;5048556;27;100049;-74
2023/10/20 08:42:32;;;;;;;5.88;3.10;;;;;;;;;;5048635;27;98575;-75
2023/10/20 08:44:58;;;;;;;4.72;4.32;;;;;;;;;;5048313;27;99311;-74
2023/10/20 08:47:25;;;;;;;5.18;4.18;;;;;;;;;;5046449;27;100761;-74
2023/10/20 08:49:52;;;;;;;6.30;3.63;;;;;;;;;;5047206;27;98264;-74
2023/10/20 08:52:19;;;;;;;3.90;3.60;;;;;;;;;;5051399;27;99448;-74
2023/10/20 08:54:47;;;;;;;3.72;3.03;;;;;;;;;;5056967;27;98695;-74
2023/10/20 08:57:14;;;;;;;3.55;3.20;;;;;;;;;;5065009;27;99447;-74
2023/10/20 08:59:49;;;;;;;3.28;2.97;;;;;;;;;;5068238;27;99955;-75
2023/10/20 09:02:16;;;;;;;3.10;2.80;;;;;;;;;;5067673;27;99153;-74
2023/10/20 09:04:43;;;;;;;3.35;3.15;;;;;;;;;;5066537;27;99556;-75
2023/10/20 09:07:16;;;;;;;2.08;1.95;;;;;;;;;;5068071;27;99025;-75
2023/10/20 09:09:43;;;;;;;2.55;2.33;;;;;;;;;;5068591;27;98299;-73
2023/10/20 09:12:11;;;;;;;6.32;2.72;;;;;;;;;;5066902;27;99489;-74
2023/10/20 09:14:40;;;;;;;3.53;3.15;;;;;;;;;;5070787;27;99137;-74
2023/10/20 09:17:08;;;;;;;2.30;2.20;;;;;;;;;;5068689;27;99347;-74
2023/10/20 09:19:35;;;;;;;2.22;2.00;;;;;;;;;;5066757;27;99218;-74
2023/10/20 09:22:02;;;;;;;1.90;1.80;;;;;;;;;;5067980;27;98239;-74
2023/10/20 09:24:31;;;;;;;2.78;2.60;;;;;;;;;;5068055;27;99509;-74
2023/10/20 09:26:58;;;;;;;2.60;2.50;;;;;;;;;;5053011;27;98962;-74
2023/10/20 09:29:24;;;;;;;3.25;2.50;;;;;;;;;;5047857;27;98289;-74
2023/10/20 09:31:51;;;;;;;10.50;2.60;;;;;;;;;;5047567;27;99324;-74
2023/10/20 09:34:18;;;;;;;2.35;2.15;;;;;;;;;;5054273;27;99821;-74
2023/10/20 09:36:47;;;;;;;2.55;2.22;;;;;;;;;;5070533;27;98286;-73
2023/10/20 09:39:20;;;;;;;2.17;2.08;;;;;;;;;;5066954;27;100004;-74
2023/10/20 09:41:48;;;;;;;1.50;1.40;;;;;;;;;;5068146;27;99796;-74
2023/10/20 09:44:35;;;;;;;3.90;2.58;;;;;;;;;;5067966;27;99392;-73
2023/10/20 09:47:13;;;;;;;2.35;2.15;;;;;;;;;;5059093;27;100267;-74
2023/10/20 09:49:40;;;;;;;1.80;1.70;;;;;;;;;;5067891;27;98256;-73
2023/10/20 09:52:06;;;;;;;2.50;2.30;;;;;;;;;;5067589;27;98573;-73
2023/10/20 09:54:34;;;;;;;2.55;2.40;;;;;;;;;;5062346;27;98903;-73
2023/10/20 09:57:00;;;;;;;2.00;1.90;;;;;;;;;;5063904;27;98461;-73
2023/10/20 09:59:27;;;;;;;2.17;1.88;;;;;;;;;;5049348;27;99330;-74
2023/10/20 10:02:01;;;;;;;1.55;1.45;;;;;;;;;;5055420;27;98867;-74
2023/10/20 10:04:33;;;;;;;2.53;2.42;;;;;;;;;;5052888;27;99486;-73
2023/10/20 10:07:03;;;;;;;1.67;1.58;;;;;;;;;;5052838;27;100042;-73
2023/10/20 10:09:39;;;;;;;1.85;1.75;;;;;;;;;;5053710;27;98236;-73
2023/10/20 10:12:09;;;;;;;5.28;1.85;;;;;;;;;;5049818;27;99782;-72
2023/10/20 10:14:35;;;;;;;2.67;1.98;;;;;;;;;;5061350;27;100001;-74
2023/10/20 10:17:07;;;;;;;3.60;2.03;;;;;;;;;;5054734;27;99208;-75
2023/10/20 10:19:33;;;;;;;1.83;1.58;;;;;;;;;;5058593;27;99569;-74
2023/10/20 10:22:01;;;;;;;2.92;1.90;;;;;;;;;;5055010;27;101914;-75
2023/10/20 10:24:31;;;;;;;1.05;1.05;;;;;;;;;;5058683;27;98534;-75
2023/10/20 10:27:06;;;;;;;1.60;1.50;;;;;;;;;;5053974;27;100295;-74
2023/10/20 10:29:50;;;;;;;1.38;1.27;;;;;;;;;;5052403;27;98230;-75
2023/10/20 10:32:20;;;;;;;2.03;1.33;;;;;;;;;;5055912;27;100318;-75
2023/10/20 10:34:52;;;;;;;2.15;1.48;;;;;;;;;;5054275;27;99997;-74
2023/10/20 10:37:30;;;;;;;1.58;1.30;;;;;;;;;;5053984;27;99497;-74
2023/10/20 10:40:07;;;;;;;1.00;1.00;;;;;;;;;;5053165;27;98581;-74
2023/10/20 10:42:38;;;;;;;1.40;1.30;;;;;;;;;;5061104;27;100360;-74
2023/10/20 10:45:14;;;;;;;1.00;1.00;;;;;;;;;;5055520;27;100086;-74
2023/10/20 10:47:40;;;;;;;1.27;1.20;;;;;;;;;;5054627;27;100323;-74
2023/10/20 10:50:09;;;;;;;1.15;1.10;;;;;;;;;;5054477;27;98272;-74
2023/10/20 10:52:35;;;;;;;1.10;1.10;;;;;;;;;;5055345;27;99774;-74
2023/10/20 10:55:03;;;;;;;1.70;0.93;;;;;;;;;;5052619;27;100046;-74
2023/10/20 10:57:30;;;;;;;0.95;0.95;;;;;;;;;;5054768;27;99995;-75
2023/10/20 10:59:57;;;;;;;1.65;1.15;;;;;;;;;;5056115;27;99579;-73
2023/10/20 11:02:23;;;;;;;1.00;1.00;;;;;;;;;;5056282;27;99775;-74
2023/10/20 11:04:50;;;;;;;1.05;1.05;;;;;;;;;;5072442;27;98447;-74
2023/10/20 11:07:16;;;;;;;1.77;0.90;;;;;;;;;;5069823;27;100648;-77
2023/10/20 11:09:43;;;;;;;1.00;1.00;;;;;;;;;;5070795;27;98168;-73
2023/10/20 11:12:10;;;;;;;1.40;1.30;;;;;;;;;;5069848;27;99516;-75
2023/10/20 11:14:39;;;;;;;1.30;1.30;;;;;;;;;;5070112;27;100201;-77
2023/10/20 11:17:05;;;;;;;0.90;0.90;;;;;;;;;;5069852;27;98144;-74
2023/10/20 11:19:32;;;;;;;1.10;1.00;;;;;;;;;;5069111;27;99030;-74
2023/10/20 11:21:59;;;;;;;1.35;1.25;;;;;;;;;;5070244;27;100407;-75
2023/10/20 11:24:26;;;;;;;1.40;1.02;;;;;;;;;;5068754;27;98451;-74
2023/10/20 11:26:57;;;;;;;1.00;1.00;;;;;;;;;;5056916;27;98764;-75
2023/10/20 11:29:28;;;;;;;2.35;1.25;;;;;;;;;;5063936;27;98595;-76
2023/10/20 11:32:05;;;;;;;0.88;0.88;;;;;;;;;;5053821;27;98475;-74
2023/10/20 11:34:32;;;;;;;1.27;1.23;;;;;;;;;;5052814;27;99948;-74
2023/10/20 11:37:00;;;;;;;1.20;1.20;;;;;;;;;;5064986;27;99075;-74
2023/10/20 11:39:27;;;;;;;1.35;1.35;;;;;;;;;;5057919;27;99222;-74
2023/10/20 11:41:55;;;;;;;1.10;1.10;;;;;;;;;;5058161;27;100154;-75
2023/10/20 11:44:24;;;;;;;0.90;0.90;;;;;;;;;;5057608;27;98386;-73
2023/10/20 11:46:52;;;;;;;1.10;1.10;;;;;;;;;;5051901;27;99799;-73
2023/10/20 11:49:19;;;;;;;1.20;1.20;;;;;;;;;;5055605;27;99979;-73
2023/10/20 11:51:45;;;;;;;1.10;1.10;;;;;;;;;;5053962;27;99628;-74
2023/10/20 11:54:12;;;;;;;1.00;1.00;;;;;;;;;;5055947;27;99092;-74
2023/10/20 11:56:40;;;;;;;0.88;0.88;;;;;;;;;;5072945;27;98580;-75
2023/10/20 11:59:07;;;;;;;1.00;1.00;;;;;;;;;;5052870;27;99600;-73
2023/10/20 12:01:36;;;;;;;0.90;0.90;;;;;;;;;;5052431;27;98958;-73
2023/10/20 12:04:07;;;;;;;1.02;0.95;;;;;;;;;;5062937;27;98619;-74
2023/10/20 12:06:36;;;;;;;0.50;0.50;;;;;;;;;;5051564;27;99836;-74
2023/10/20 12:09:07;;;;;;;1.65;1.55;;;;;;;;;;5057532;27;99959;-72
2023/10/20 12:11:36;;;;;;;3.50;0.90;;;;;;;;;;5062991;27;98069;-73
2023/10/20 12:14:04;;;;;;;0.82;0.82;;;;;;;;;;5053803;27;101999;-74
2023/10/20 12:16:32;;;;;;;2.45;1.40;;;;;;;;;;5053414;27;99710;-74
2023/10/20 12:19:01;;;;;;;1.73;1.08;;;;;;;;;;5054366;27;100040;-73
2023/10/20 12:21:28;;;;;;;0.90;0.90;;;;;;;;;;5054000;27;99194;-73
2023/10/20 12:23:55;;;;;;;1.80;1.17;;;;;;;;;;5057262;27;98344;-73
2023/10/20 12:26:24;;;;;;;1.02;1.02;;;;;;;;;;5069043;27;99300;-74
2023/10/20 12:28:55;;;;;;;0.82;0.82;;;;;;;;;;5054582;27;100562;-73
2023/10/20 12:31:25;;;;;;;1.23;1.15;;;;;;;;;;5056438;27;98329;-74
2023/10/20 12:33:52;;;;;;;0.80;0.80;;;;;;;;;;5059123;27;100123;-74
2023/10/20 12:36:20;;;;;;;1.83;1.17;;;;;;;;;;5078507;27;98433;-74
2023/10/20 12:38:47;;;;;;;1.30;1.20;;;;;;;;;;5064915;27;98298;-75
2023/10/20 12:41:13;;;;;;;1.05;1.00;;;;;;;;;;5068395;27;99851;-74
2023/10/20 12:43:41;;;;;;;1.00;1.00;;;;;;;;;;5068335;27;98199;-74
2023/10/20 12:46:13;;;;;;;0.93;0.93;;;;;;;;;;5068637;27;99420;-74
2023/10/20 12:48:41;;;;;;;0.90;0.90;;;;;;;;;;5069165;27;100275;-74
2023/10/20 12:51:08;;;;;;;1.48;1.48;;;;;;;;;;5068046;27;98021;-74
2023/10/20 12:53:36;;;;;;;1.50;1.40;;;;;;;;;;5071876;27;99911;-74
2023/10/20 12:56:03;;;;;;;1.20;1.20;;;;;;;;;;5067319;27;98299;-74
2023/10/20 12:58:30;;;;;;;1.02;1.02;;;;;;;;;;5068178;27;98532;-74
2023/10/20 13:00:57;;;;;;;1.17;1.17;;;;;;;;;;5067119;27;99270;-74
2023/10/20 13:03:24;;;;;;;1.60;1.50;;;;;;;;;;5067550;27;98342;-74
2023/10/20 13:05:51;;;;;;;1.50;1.40;;;;;;;;;;5060902;27;98839;-74
2023/10/20 13:08:18;;;;;;;1.25;1.17;;;;;;;;;;5063351;27;100157;-74
2023/10/20 13:10:47;;;;;;;1.15;1.15;;;;;;;;;;5065541;27;98275;-74
2023/10/20 13:13:14;;;;;;;1.52;1.42;;;;;;;;;;5048596;27;99722;-75
2023/10/20 13:15:46;;;;;;;1.92;1.83;;;;;;;;;;5049261;27;100355;-73
2023/10/20 13:18:15;;;;;;;1.13;1.13;;;;;;;;;;5080181;27;99410;-76
2023/10/20 13:20:43;;;;;;;1.23;1.13;;;;;;;;;;5047070;27;99746;-75
2023/10/20 13:23:13;;;;;;;1.27;1.17;;;;;;;;;;5052654;27;98271;-75
2023/10/20 13:25:45;;;;;;;0.98;0.98;;;;;;;;;;5054903;27;98619;-75
2023/10/20 13:28:15;;;;;;;1.10;1.10;;;;;;;;;;5047634;27;100190;-75
2023/10/20 13:30:42;;;;;;;1.10;1.10;;;;;;;;;;5047953;27;98442;-75
2023/10/20 13:33:20;;;;;;;1.75;1.70;;;;;;;;;;5051040;27;98800;-75
2023/10/20 13:35:46;;;;;;;2.17;1.40;;;;;;;;;;5049072;27;99856;-75
2023/10/20 13:38:14;;;;;;;1.13;1.13;;;;;;;;;;5050437;27;98371;-75
2023/10/20 13:40:58;;;;;;;1.08;1.08;;;;;;;;;;5047889;27;98978;-75
2023/10/20 13:43:26;;;;;;;1.00;1.00;;;;;;;;;;5047116;27;98475;-75
2023/10/20 13:45:52;;;;;;;0.90;0.90;;;;;;;;;;5046243;27;99792;-75
2023/10/20 13:48:19;;;;;;;1.00;0.85;;;;;;;;;;5047157;27;99785;-75
2023/10/20 13:50:45;;;;;;;1.15;1.15;;;;;;;;;;5047599;27;98242;-75
2023/10/20 13:53:14;;;;;;;1.00;1.00;;;;;;;;;;5046555;27;98914;-76
2023/10/20 13:55:44;;;;;;;0.82;0.82;;;;;;;;;;5059411;27;100969;-75
2023/10/20 13:58:21;;;;;;;0.93;0.93;;;;;;;;;;5067799;27;98548;-75
2023/10/20 14:00:49;;;;;;;2.10;0.98;;;;;;;;;;5070507;27;99453;-75
2023/10/20 14:03:15;;;;;;;1.38;0.85;;;;;;;;;;5067913;27;98463;-76
2023/10/20 14:05:50;;;;;;;0.80;0.80;;;;;;;;;;5067880;27;98508;-75
2023/10/20 14:08:17;;;;;;;0.75;0.75;;;;;;;;;;5066908;27;98992;-76
2023/10/20 14:10:44;;;;;;;1.00;0.80;;;;;;;;;;5066975;27;98266;-76
2023/10/20 14:13:10;;;;;;;2.65;0.82;;;;;;;;;;5067151;27;99441;-76
2023/10/20 14:15:37;;;;;;;1.13;1.13;;;;;;;;;;5066865;27;99982;-76
2023/10/20 14:18:04;;;;;;;3.53;1.13;;;;;;;;;;5067982;27;98419;-75
2023/10/20 14:20:31;;;;;;;3.17;1.05;;;;;;;;;;5064526;27;100125;-75
2023/10/20 14:22:58;;;;;;;3.03;1.00;;;;;;;;;;5059842;27;98284;-74
2023/10/20 14:25:24;;;;;;;1.30;1.20;;;;;;;;;;5049825;27;99606;-74
2023/10/20 14:27:51;;;;;;;1.67;1.50;;;;;;;;;;5046367;27;100206;-76
2023/10/20 14:30:17;;;;;;;1.45;1.40;;;;;;;;;;5057851;27;98180;-75
2023/10/20 14:32:43;;;;;;;1.13;1.02;;;;;;;;;;5060773;27;99561;-76
2023/10/20 14:35:10;;;;;;;1.50;1.40;;;;;;;;;;5054750;27;99244;-75
2023/10/20 14:37:38;;;;;;;0.60;0.60;;;;;;;;;;5052448;27;98830;-74
2023/10/20 14:40:05;;;;;;;1.75;1.30;;;;;;;;;;5053531;27;99951;-75
2023/10/20 14:42:31;;;;;;;2.88;1.50;;;;;;;;;;5054452;27;100231;-74
2023/10/20 14:44:58;;;;;;;1.40;1.40;;;;;;;;;;5061726;27;99302;-73
2023/10/20 14:47:25;;;;;;;1.08;1.08;;;;;;;;;;5052543;27;99910;-75
2023/10/20 14:49:53;;;;;;;1.20;1.20;;;;;;;;;;5049755;27;98229;-75
2023/10/20 14:52:20;;;;;;;3.20;1.38;;;;;;;;;;5051661;27;99442;-74
2023/10/20 14:54:47;;;;;;;0.90;0.90;;;;;;;;;;5056303;27;99721;-74
2023/10/20 14:57:13;;;;;;;1.70;1.00;;;;;;;;;;5051742;27;98790;-74
2023/10/20 14:59:39;;;;;;;2.55;0.90;;;;;;;;;;5051279;27;99513;-74
2023/10/20 15:02:06;;;;;;;4.80;1.13;;;;;;;;;;5057350;27;98789;-74
2023/10/20 15:04:32;;;;;;;0.60;0.60;;;;;;;;;;5061765;27;98823;-74
2023/10/20 15:07:00;;;;;;;0.80;0.80;;;;;;;;;;5061376;27;100306;-75
2023/10/20 15:09:26;;;;;;;0.80;0.75;;;;;;;;;;5059168;27;98906;-76
2023/10/20 15:11:53;;;;;;;0.80;0.80;;;;;;;;;;5057030;27;99012;-74
2023/10/20 15:14:20;;;;;;;3.25;1.20;;;;;;;;;;5054132;27;99918;-76